BLUE7 KMEM-KRDU
Flight info
| Callsign | BLUE7 |
|---|---|
| Flight time | N/A |
| Altitude | 41000 |
| Route | GOETZ7 DIYAB VXV KPASS ALDAN4 |
| Aircraft | C750/M-VGDW/C |
Departure
| Time | 2026-05-07 01:55 |
|---|---|
| Airport | Memphis International Airport (KMEM) |
Arrival
| Time | N/A |
|---|---|
| Airport | Raleigh-Durham International Airport (KRDU) |
| Time | Latitude | Longitude | Altitude | Speed | Heading |
|---|---|---|---|---|---|
| 2026-05-07 01:42 | 35.05542 | -89.96768 | 264 ft | 0 kts | 209° |
| 2026-05-07 01:46 | 35.05542 | -89.96769 | 264 ft | 0 kts | 210° |
| 2026-05-07 01:46 | 35.05541 | -89.96770 | 264 ft | 0 kts | 215° |
| 2026-05-07 01:46 | 35.05540 | -89.96770 | 264 ft | 0 kts | 222° |
| 2026-05-07 01:47 | 35.05539 | -89.96772 | 264 ft | 0 kts | 224° |
| 2026-05-07 01:47 | 35.05532 | -89.96780 | 264 ft | 3 kts | 228° |
| 2026-05-07 01:47 | 35.05520 | -89.96819 | 264 ft | 6 kts | 258° |
| 2026-05-07 01:48 | 35.05521 | -89.96881 | 264 ft | 0 kts | 271° |
| 2026-05-07 01:48 | 35.05521 | -89.96893 | 264 ft | 3 kts | 270° |
| 2026-05-07 01:48 | 35.05521 | -89.96900 | 264 ft | 2 kts | 270° |
| 2026-05-07 01:48 | 35.05521 | -89.96910 | 264 ft | 2 kts | 281° |
| 2026-05-07 01:49 | 35.05524 | -89.96947 | 264 ft | 6 kts | 254° |
| 2026-05-07 01:49 | 35.05475 | -89.96979 | 264 ft | 10 kts | 186° |
| 2026-05-07 01:49 | 35.05394 | -89.96988 | 266 ft | 12 kts | 187° |
| 2026-05-07 01:49 | 35.05320 | -89.97009 | 268 ft | 8 kts | 192° |
| 2026-05-07 01:50 | 35.05248 | -89.97023 | 268 ft | 12 kts | 185° |
| 2026-05-07 01:50 | 35.05147 | -89.97039 | 269 ft | 16 kts | 189° |
| 2026-05-07 01:50 | 35.05025 | -89.97048 | 271 ft | 19 kts | 184° |
| 2026-05-07 01:50 | 35.04987 | -89.97053 | 272 ft | 22 kts | 187° |
| 2026-05-07 01:51 | 35.04813 | -89.97058 | 273 ft | 30 kts | 180° |
| 2026-05-07 01:51 | 35.04577 | -89.97066 | 276 ft | 37 kts | 184° |
| 2026-05-07 01:52 | 35.04296 | -89.97090 | 282 ft | 43 kts | 192° |
| 2026-05-07 01:52 | 35.03976 | -89.97082 | 288 ft | 48 kts | 179° |
| 2026-05-07 01:52 | 35.03624 | -89.97088 | 296 ft | 52 kts | 174° |
| 2026-05-07 01:52 | 35.03261 | -89.97073 | 298 ft | 51 kts | 179° |
| 2026-05-07 01:53 | 35.02913 | -89.97067 | 300 ft | 49 kts | 174° |
| 2026-05-07 01:53 | 35.02621 | -89.97045 | 303 ft | 12 kts | 223° |
| 2026-05-07 01:53 | 35.02563 | -89.97090 | 306 ft | 0 kts | 208° |
| 2026-05-07 01:54 | 35.02557 | -89.97102 | 307 ft | 6 kts | 254° |
| 2026-05-07 01:54 | 35.02568 | -89.97209 | 312 ft | 18 kts | 282° |
| 2026-05-07 01:54 | 35.02615 | -89.97247 | 313 ft | 12 kts | 5° |
| 2026-05-07 01:55 | 35.03067 | -89.97246 | 309 ft | 113 kts | 359° |
| 2026-05-07 01:55 | 35.04091 | -89.97292 | 406 ft | 180 kts | 356° |
| 2026-05-07 01:55 | 35.05412 | -89.97461 | 1477 ft | 196 kts | 355° |
| 2026-05-07 01:55 | 35.06764 | -89.97666 | 2354 ft | 192 kts | 358° |
| 2026-05-07 01:56 | 35.08125 | -89.97832 | 2937 ft | 200 kts | 357° |
| 2026-05-07 01:56 | 35.09403 | -89.97512 | 3768 ft | 194 kts | 37° |
| 2026-05-07 01:56 | 35.09969 | -89.96706 | 4264 ft | 195 kts | 54° |
| 2026-05-07 01:57 | 35.11246 | -89.95142 | 5199 ft | 193 kts | 32° |
| 2026-05-07 01:57 | 35.12377 | -89.94196 | 5874 ft | 206 kts | 28° |
| 2026-05-07 01:58 | 35.13591 | -89.93216 | 6558 ft | 225 kts | 38° |
| 2026-05-07 01:58 | 35.14365 | -89.91491 | 7278 ft | 247 kts | 83° |
| 2026-05-07 01:58 | 35.14248 | -89.89356 | 8126 ft | 254 kts | 98° |
| 2026-05-07 01:58 | 35.14133 | -89.87200 | 8949 ft | 263 kts | 94° |
| 2026-05-07 01:59 | 35.14067 | -89.84954 | 9746 ft | 271 kts | 94° |
| 2026-05-07 01:59 | 35.14127 | -89.82622 | 10540 ft | 280 kts | 81° |
| 2026-05-07 01:59 | 35.14566 | -89.80114 | 10769 ft | 324 kts | 77° |
| 2026-05-07 01:59 | 35.15052 | -89.77338 | 11439 ft | 348 kts | 78° |
| 2026-05-07 02:00 | 35.15549 | -89.74420 | 12492 ft | 356 kts | 80° |
| 2026-05-07 02:00 | 35.16053 | -89.71429 | 13498 ft | 365 kts | 80° |
| 2026-05-07 02:00 | 35.16558 | -89.68375 | 14444 ft | 375 kts | 80° |
| 2026-05-07 02:00 | 35.17096 | -89.65153 | 15020 ft | 397 kts | 80° |
| 2026-05-07 02:01 | 35.17654 | -89.61806 | 15716 ft | 413 kts | 80° |
| 2026-05-07 02:01 | 35.18225 | -89.58366 | 16569 ft | 423 kts | 80° |
| 2026-05-07 02:01 | 35.18828 | -89.54771 | 17464 ft | 431 kts | 79° |
| 2026-05-07 02:01 | 35.19422 | -89.51193 | 18282 ft | 440 kts | 79° |
| 2026-05-07 02:02 | 35.19900 | -89.47503 | 19146 ft | 444 kts | 88° |
| 2026-05-07 02:02 | 35.20126 | -89.43733 | 20013 ft | 449 kts | 87° |
| 2026-05-07 02:02 | 35.20383 | -89.39864 | 20822 ft | 455 kts | 87° |
| 2026-05-07 02:02 | 35.20640 | -89.36015 | 21586 ft | 461 kts | 87° |
| 2026-05-07 02:03 | 35.20906 | -89.32087 | 22388 ft | 465 kts | 88° |
| 2026-05-07 02:03 | 35.21164 | -89.28156 | 23094 ft | 470 kts | 87° |
| 2026-05-07 02:03 | 35.21437 | -89.24122 | 23736 ft | 477 kts | 87° |
| 2026-05-07 02:03 | 35.22078 | -89.20128 | 24376 ft | 484 kts | 72° |
| 2026-05-07 02:04 | 35.23111 | -89.16206 | 25030 ft | 489 kts | 72° |
| 2026-05-07 02:04 | 35.24337 | -89.12299 | 25637 ft | 495 kts | 67° |
| 2026-05-07 02:04 | 35.25149 | -89.08154 | 26193 ft | 499 kts | 89° |
| 2026-05-07 02:04 | 35.25460 | -89.03941 | 26823 ft | 504 kts | 85° |
| 2026-05-07 02:05 | 35.25944 | -88.99687 | 27417 ft | 509 kts | 84° |
| 2026-05-07 02:05 | 35.26479 | -88.95369 | 28016 ft | 514 kts | 84° |
| 2026-05-07 02:05 | 35.27044 | -88.90972 | 28558 ft | 520 kts | 83° |
| 2026-05-07 02:05 | 35.27611 | -88.86562 | 29096 ft | 525 kts | 84° |
| 2026-05-07 02:06 | 35.28181 | -88.82129 | 29655 ft | 529 kts | 84° |
| 2026-05-07 02:06 | 35.28740 | -88.77708 | 30150 ft | 534 kts | 84° |
| 2026-05-07 02:06 | 35.29320 | -88.73101 | 30646 ft | 539 kts | 83° |
| 2026-05-07 02:06 | 35.29893 | -88.68590 | 31081 ft | 546 kts | 84° |
| 2026-05-07 02:07 | 35.30486 | -88.63962 | 31569 ft | 550 kts | 84° |
| 2026-05-07 02:07 | 35.31665 | -88.54592 | 32448 ft | 560 kts | 83° |
| 2026-05-07 02:07 | 35.32257 | -88.49857 | 32869 ft | 565 kts | 83° |
| 2026-05-07 02:08 | 35.32844 | -88.45099 | 33288 ft | 570 kts | 83° |
| 2026-05-07 02:08 | 35.33458 | -88.40245 | 33781 ft | 574 kts | 82° |
| 2026-05-07 02:08 | 35.34059 | -88.35366 | 34291 ft | 578 kts | 83° |
| 2026-05-07 02:08 | 35.34669 | -88.30496 | 34696 ft | 582 kts | 84° |
| 2026-05-07 02:09 | 35.35267 | -88.25590 | 35175 ft | 585 kts | 83° |
| 2026-05-07 02:09 | 35.35871 | -88.20671 | 35606 ft | 588 kts | 83° |
| 2026-05-07 02:09 | 35.36480 | -88.15630 | 35970 ft | 593 kts | 83° |
| 2026-05-07 02:09 | 35.37094 | -88.10682 | 36365 ft | 596 kts | 83° |
| 2026-05-07 02:10 | 35.37709 | -88.05617 | 36770 ft | 599 kts | 83° |
| 2026-05-07 02:10 | 35.38315 | -88.00589 | 37133 ft | 602 kts | 83° |
| 2026-05-07 02:10 | 35.38927 | -87.95448 | 37450 ft | 607 kts | 83° |
| 2026-05-07 02:10 | 35.39554 | -87.90311 | 37795 ft | 610 kts | 83° |
| 2026-05-07 02:11 | 35.40170 | -87.85166 | 38143 ft | 613 kts | 82° |
| 2026-05-07 02:11 | 35.40789 | -87.79994 | 38513 ft | 616 kts | 83° |
| 2026-05-07 02:11 | 35.41407 | -87.74741 | 38776 ft | 620 kts | 83° |
| 2026-05-07 02:11 | 35.42035 | -87.69495 | 39127 ft | 623 kts | 83° |
| 2026-05-07 02:12 | 35.42648 | -87.64253 | 39461 ft | 625 kts | 83° |
| 2026-05-07 02:12 | 35.43275 | -87.58986 | 39832 ft | 628 kts | 82° |
| 2026-05-07 02:12 | 35.43899 | -87.53604 | 39351 ft | 644 kts | 83° |
| 2026-05-07 02:12 | 35.44535 | -87.48080 | 39078 ft | 651 kts | 83° |
| 2026-05-07 02:13 | 35.45813 | -87.37080 | 39041 ft | 651 kts | 82° |
| 2026-05-07 02:13 | 35.47086 | -87.26101 | 38995 ft | 648 kts | 83° |
| 2026-05-07 02:14 | 35.48337 | -87.15147 | 39009 ft | 646 kts | 83° |
| 2026-05-07 02:14 | 35.49561 | -87.04196 | 39002 ft | 646 kts | 83° |
| 2026-05-07 02:15 | 35.50794 | -86.93253 | 39003 ft | 645 kts | 83° |
| 2026-05-07 02:15 | 35.52008 | -86.82348 | 39010 ft | 644 kts | 84° |
| 2026-05-07 02:16 | 35.53208 | -86.71474 | 39009 ft | 645 kts | 83° |
| 2026-05-07 02:16 | 35.54407 | -86.60509 | 39010 ft | 644 kts | 83° |
| 2026-05-07 02:17 | 35.55588 | -86.49577 | 39012 ft | 644 kts | 83° |
| 2026-05-07 02:17 | 35.56962 | -86.38741 | 39018 ft | 644 kts | 78° |
| 2026-05-07 02:18 | 35.58695 | -86.27897 | 39004 ft | 644 kts | 80° |
| 2026-05-07 02:18 | 35.60368 | -86.17027 | 38983 ft | 644 kts | 80° |
| 2026-05-07 02:19 | 35.62042 | -86.06197 | 38993 ft | 645 kts | 80° |
| 2026-05-07 02:19 | 35.63699 | -85.95283 | 39000 ft | 645 kts | 80° |
| 2026-05-07 02:20 | 35.65353 | -85.84403 | 39010 ft | 646 kts | 79° |
| 2026-05-07 02:20 | 35.66976 | -85.73553 | 39009 ft | 646 kts | 80° |
| 2026-05-07 02:21 | 35.68623 | -85.62685 | 39001 ft | 646 kts | 80° |
| 2026-05-07 02:21 | 35.70243 | -85.51701 | 38999 ft | 647 kts | 80° |
| 2026-05-07 02:22 | 35.71856 | -85.40791 | 38999 ft | 647 kts | 79° |
| 2026-05-07 02:22 | 35.73476 | -85.29831 | 38971 ft | 647 kts | 80° |
| 2026-05-07 02:23 | 35.75046 | -85.18941 | 38979 ft | 647 kts | 80° |
| 2026-05-07 02:23 | 35.76646 | -85.07985 | 38975 ft | 647 kts | 80° |
| 2026-05-07 02:24 | 35.78204 | -84.97089 | 38985 ft | 647 kts | 81° |
| 2026-05-07 02:24 | 35.79502 | -84.86130 | 38988 ft | 647 kts | 82° |
| 2026-05-07 02:25 | 35.80788 | -84.75178 | 38991 ft | 648 kts | 83° |
| 2026-05-07 02:25 | 35.82056 | -84.64187 | 38994 ft | 648 kts | 82° |
| 2026-05-07 02:26 | 35.83327 | -84.53167 | 38991 ft | 648 kts | 82° |
| 2026-05-07 02:26 | 35.84595 | -84.42107 | 38991 ft | 648 kts | 83° |
| 2026-05-07 02:27 | 35.85838 | -84.31133 | 38973 ft | 649 kts | 82° |
| 2026-05-07 02:27 | 35.87069 | -84.20163 | 38964 ft | 647 kts | 83° |
| 2026-05-07 02:28 | 35.88317 | -84.09083 | 38989 ft | 648 kts | 83° |
| 2026-05-07 02:28 | 35.89534 | -83.98006 | 38992 ft | 648 kts | 83° |
| 2026-05-07 02:29 | 35.91424 | -83.87096 | 38986 ft | 644 kts | 64° |
| 2026-05-07 02:29 | 35.95116 | -83.77029 | 39011 ft | 643 kts | 61° |
| 2026-05-07 02:30 | 35.98862 | -83.66932 | 38986 ft | 643 kts | 61° |
| 2026-05-07 02:30 | 36.02596 | -83.56807 | 38994 ft | 645 kts | 62° |
| 2026-05-07 02:31 | 36.06342 | -83.46663 | 38996 ft | 645 kts | 62° |
| 2026-05-07 02:31 | 36.10056 | -83.36585 | 39003 ft | 646 kts | 61° |
| 2026-05-07 02:32 | 36.13801 | -83.26320 | 38983 ft | 646 kts | 62° |
| 2026-05-07 02:32 | 36.17520 | -83.16137 | 38975 ft | 646 kts | 62° |
| 2026-05-07 02:33 | 36.21201 | -83.06022 | 38969 ft | 646 kts | 62° |
| 2026-05-07 02:33 | 36.24887 | -82.95880 | 38983 ft | 646 kts | 62° |
| 2026-05-07 02:34 | 36.28579 | -82.85627 | 39005 ft | 647 kts | 62° |
| 2026-05-07 02:34 | 36.32290 | -82.75382 | 38996 ft | 648 kts | 62° |
| 2026-05-07 02:35 | 36.35951 | -82.65141 | 39006 ft | 648 kts | 62° |
| 2026-05-07 02:35 | 36.39639 | -82.54814 | 39024 ft | 649 kts | 62° |
| 2026-05-07 02:36 | 36.43320 | -82.44538 | 39023 ft | 649 kts | 61° |
| 2026-05-07 02:36 | 36.46970 | -82.34246 | 39018 ft | 647 kts | 63° |
| 2026-05-07 02:37 | 36.50639 | -82.23907 | 38974 ft | 647 kts | 62° |
| 2026-05-07 02:37 | 36.54261 | -82.13680 | 39010 ft | 646 kts | 62° |
| 2026-05-07 02:38 | 36.57877 | -82.03349 | 38977 ft | 648 kts | 64° |
| 2026-05-07 02:38 | 36.59729 | -81.98101 | 38003 ft | 661 kts | 63° |
| 2026-05-07 02:38 | 36.61571 | -81.92831 | 37158 ft | 664 kts | 64° |
| 2026-05-07 02:39 | 36.63410 | -81.87566 | 36342 ft | 666 kts | 64° |
| 2026-05-07 02:39 | 36.65145 | -81.82189 | 35458 ft | 667 kts | 70° |
| 2026-05-07 02:39 | 36.66466 | -81.76662 | 34698 ft | 667 kts | 73° |
| 2026-05-07 02:39 | 36.67775 | -81.71142 | 33884 ft | 668 kts | 72° |
| 2026-05-07 02:40 | 36.69071 | -81.65570 | 33077 ft | 669 kts | 73° |
| 2026-05-07 02:40 | 36.70374 | -81.59936 | 32305 ft | 667 kts | 73° |
| 2026-05-07 02:40 | 36.71663 | -81.54413 | 31557 ft | 666 kts | 73° |
| 2026-05-07 02:40 | 36.72939 | -81.48903 | 30843 ft | 665 kts | 72° |
| 2026-05-07 02:41 | 36.74214 | -81.43356 | 30091 ft | 654 kts | 74° |
| 2026-05-07 02:41 | 36.75462 | -81.37934 | 29359 ft | 644 kts | 73° |
| 2026-05-07 02:41 | 36.76676 | -81.32634 | 28629 ft | 637 kts | 74° |
| 2026-05-07 02:41 | 36.77905 | -81.27309 | 27877 ft | 628 kts | 74° |
| 2026-05-07 02:42 | 36.79075 | -81.22172 | 27159 ft | 616 kts | 73° |
| 2026-05-07 02:42 | 36.80239 | -81.17063 | 27029 ft | 591 kts | 73° |
| 2026-05-07 02:42 | 36.81337 | -81.12266 | 26980 ft | 570 kts | 73° |
| 2026-05-07 02:42 | 36.82395 | -81.07592 | 26966 ft | 550 kts | 73° |
| 2026-05-07 02:43 | 36.83443 | -81.03035 | 26664 ft | 540 kts | 74° |
| 2026-05-07 02:43 | 36.84455 | -80.98545 | 26209 ft | 533 kts | 74° |
| 2026-05-07 02:43 | 36.85454 | -80.94130 | 25764 ft | 527 kts | 74° |
| 2026-05-07 02:43 | 36.86431 | -80.89786 | 25328 ft | 522 kts | 74° |
| 2026-05-07 02:44 | 36.87426 | -80.85400 | 25018 ft | 512 kts | 74° |
| 2026-05-07 02:44 | 36.88376 | -80.81137 | 24993 ft | 511 kts | 73° |
| 2026-05-07 02:44 | 36.89343 | -80.76878 | 24998 ft | 514 kts | 73° |
| 2026-05-07 02:44 | 36.90313 | -80.72548 | 24992 ft | 517 kts | 73° |
| 2026-05-07 02:45 | 36.91276 | -80.68240 | 24986 ft | 520 kts | 73° |
| 2026-05-07 02:45 | 36.92258 | -80.63838 | 24988 ft | 522 kts | 73° |
| 2026-05-07 02:45 | 36.93221 | -80.59494 | 24979 ft | 524 kts | 73° |
| 2026-05-07 02:45 | 36.94197 | -80.55118 | 24970 ft | 526 kts | 74° |
| 2026-05-07 02:46 | 36.95191 | -80.50671 | 24974 ft | 528 kts | 74° |
| 2026-05-07 02:46 | 36.96163 | -80.46177 | 24972 ft | 529 kts | 75° |
| 2026-05-07 02:46 | 36.97080 | -80.41760 | 24974 ft | 531 kts | 76° |
| 2026-05-07 02:46 | 36.98024 | -80.37295 | 24974 ft | 533 kts | 75° |
| 2026-05-07 02:47 | 36.98988 | -80.32769 | 24964 ft | 536 kts | 76° |
| 2026-05-07 02:47 | 36.99945 | -80.28235 | 24965 ft | 541 kts | 75° |
| 2026-05-07 02:47 | 37.00906 | -80.23696 | 24960 ft | 545 kts | 76° |
| 2026-05-07 02:47 | 37.01889 | -80.19070 | 24964 ft | 548 kts | 76° |
| 2026-05-07 02:48 | 37.02853 | -80.14452 | 24953 ft | 552 kts | 76° |
| 2026-05-07 02:48 | 37.03818 | -80.09750 | 24955 ft | 555 kts | 78° |
| 2026-05-07 02:48 | 37.04104 | -80.04992 | 24927 ft | 551 kts | 98° |
| 2026-05-07 02:48 | 37.03272 | -80.00407 | 24935 ft | 540 kts | 116° |
| 2026-05-07 02:49 | 37.01736 | -79.96069 | 24956 ft | 539 kts | 120° |
| 2026-05-07 02:49 | 37.00201 | -79.91758 | 24949 ft | 540 kts | 121° |
| 2026-05-07 02:49 | 36.98655 | -79.87469 | 24937 ft | 542 kts | 120° |
| 2026-05-07 02:49 | 36.97118 | -79.83185 | 24933 ft | 544 kts | 120° |
| 2026-05-07 02:50 | 36.95566 | -79.78857 | 24932 ft | 545 kts | 120° |
| 2026-05-07 02:50 | 36.94000 | -79.74484 | 24928 ft | 546 kts | 120° |
| 2026-05-07 02:50 | 36.92446 | -79.70161 | 24666 ft | 553 kts | 120° |
| 2026-05-07 02:50 | 36.90850 | -79.65750 | 24102 ft | 553 kts | 120° |
| 2026-05-07 02:51 | 36.89299 | -79.61414 | 23704 ft | 540 kts | 119° |
| 2026-05-07 02:51 | 36.87774 | -79.57183 | 23296 ft | 527 kts | 119° |
| 2026-05-07 02:51 | 36.86277 | -79.53037 | 22794 ft | 519 kts | 119° |
| 2026-05-07 02:51 | 36.84822 | -79.49017 | 22330 ft | 511 kts | 119° |
| 2026-05-07 02:52 | 36.83354 | -79.44962 | 21847 ft | 505 kts | 119° |
| 2026-05-07 02:52 | 36.81908 | -79.40964 | 21374 ft | 499 kts | 118° |
| 2026-05-07 02:52 | 36.80499 | -79.37096 | 20907 ft | 495 kts | 119° |
| 2026-05-07 02:52 | 36.79084 | -79.33189 | 20431 ft | 491 kts | 120° |
| 2026-05-07 02:53 | 36.77669 | -79.29299 | 19933 ft | 488 kts | 119° |
| 2026-05-07 02:53 | 36.76253 | -79.25454 | 19313 ft | 490 kts | 119° |
| 2026-05-07 02:53 | 36.74842 | -79.21566 | 18684 ft | 491 kts | 118° |
| 2026-05-07 02:53 | 36.73436 | -79.17721 | 18059 ft | 492 kts | 118° |
| 2026-05-07 02:54 | 36.72006 | -79.13808 | 17435 ft | 493 kts | 118° |
| 2026-05-07 02:54 | 36.70589 | -79.09946 | 16827 ft | 491 kts | 118° |
| 2026-05-07 02:54 | 36.69129 | -79.06073 | 16197 ft | 488 kts | 122° |
| 2026-05-07 02:54 | 36.67088 | -79.02875 | 15566 ft | 471 kts | 144° |
| 2026-05-07 02:55 | 36.64348 | -79.00809 | 14956 ft | 450 kts | 165° |
| 2026-05-07 02:55 | 36.61416 | -78.99776 | 14369 ft | 438 kts | 173° |
| 2026-05-07 02:55 | 36.58482 | -78.98834 | 14010 ft | 427 kts | 173° |
| 2026-05-07 02:55 | 36.55626 | -78.98014 | 13690 ft | 419 kts | 174° |
| 2026-05-07 02:56 | 36.52786 | -78.97186 | 13348 ft | 411 kts | 174° |
| 2026-05-07 02:56 | 36.50080 | -78.96401 | 12993 ft | 391 kts | 172° |